Time;durP1;ratioP1;P1;durP2;ratioP2;P2;SDS_P1;SDS_P2;PMS_P1;PMS_P2;Temp;Humidity;BMP_temperature;BMP_pressure;BME280_temperature;BME280_humidity;BME280_pressure;Samples;Min_cycle;Max_cycle;Signal;HPM_P1;HPM_P2
2020/12/14 00:00:09;;;;;;;33.63;7.27;;;11.50;99.90;;;;;;5077254;28;20381;-67
2020/12/14 00:02:35;;;;;;;31.50;7.43;;;11.50;99.90;;;;;;5096076;28;20119;-67
2020/12/14 00:05:01;;;;;;;33.70;7.87;;;11.50;99.90;;;;;;5095639;28;20393;-66
2020/12/14 00:07:27;;;;;;;27.93;5.77;;;11.50;99.90;;;;;;5095782;28;20097;-66
2020/12/14 00:09:52;;;;;;;26.50;7.67;;;11.50;99.90;;;;;;5095289;28;20032;-66
2020/12/14 00:12:18;;;;;;;36.77;7.20;;;11.50;99.90;;;;;;5095959;28;20028;-67
2020/12/14 00:14:43;;;;;;;35.00;7.57;;;11.50;99.90;;;;;;5096214;28;20074;-67
2020/12/14 00:17:09;;;;;;;36.37;9.47;;;11.50;99.90;;;;;;5077058;28;20509;-67
2020/12/14 00:19:35;;;;;;;33.20;8.63;;;11.50;99.90;;;;;;5095465;28;20483;-67
2020/12/14 00:22:00;;;;;;;51.40;9.83;;;11.50;99.90;;;;;;5097661;28;20075;-67
2020/12/14 00:24:26;;;;;;;26.57;5.63;;;11.30;99.90;;;;;;5106510;28;20032;-67
2020/12/14 00:26:52;;;;;;;25.67;7.63;;;11.20;99.90;;;;;;5095510;28;20110;-68
2020/12/14 00:29:19;;;;;;;46.93;7.20;;;11.10;99.90;;;;;;5095997;28;20387;-68
2020/12/14 00:31:50;;;;;;;35.30;7.20;;;11.00;99.90;;;;;;5099329;28;20023;-68
2020/12/14 00:34:16;;;;;;;38.07;8.80;;;11.00;99.90;;;;;;5105194;28;20058;-68
2020/12/14 00:36:43;;;;;;;34.00;8.27;;;11.10;99.90;;;;;;5119803;28;20481;-68
2020/12/14 00:39:09;;;;;;;33.27;7.90;;;11.10;99.90;;;;;;5119498;28;20019;-68
2020/12/14 00:41:35;;;;;;;25.57;6.27;;;11.10;99.90;;;;;;5120108;28;20028;-68
2020/12/14 00:44:00;;;;;;;22.20;6.20;;;11.10;99.90;;;;;;5119476;28;20027;-68
2020/12/14 00:46:26;;;;;;;11.10;4.10;;;11.10;99.90;;;;;;5094571;28;20032;-67
2020/12/14 00:48:51;;;;;;;6.57;1.90;;;11.00;99.90;;;;;;5082196;28;20110;-66
2020/12/14 00:51:23;;;;;;;7.43;1.83;;;10.80;99.90;;;;;;5100784;28;20043;-67
2020/12/14 00:53:49;;;;;;;15.47;2.93;;;10.70;99.90;;;;;;5080844;28;20089;-67
2020/12/14 00:56:17;;;;;;;8.10;2.30;;;10.80;99.90;;;;;;5098770;28;20032;-66
2020/12/14 00:58:42;;;;;;;14.70;3.77;;;10.80;99.90;;;;;;5099028;28;20137;-66
2020/12/14 01:01:08;;;;;;;18.50;3.40;;;10.80;99.90;;;;;;5098326;28;20031;-67
2020/12/14 01:03:34;;;;;;;12.70;3.83;;;10.80;99.90;;;;;;5099243;28;20079;-66
2020/12/14 01:06:01;;;;;;;15.27;4.03;;;10.90;99.90;;;;;;5099075;28;20028;-67
2020/12/14 01:08:27;;;;;;;10.53;3.73;;;10.80;99.90;;;;;;5119618;28;20027;-68
2020/12/14 01:10:53;;;;;;;16.63;4.73;;;10.80;99.90;;;;;;5118721;28;20434;-68
2020/12/14 01:13:18;;;;;;;8.77;2.00;;;10.90;99.90;;;;;;5082170;28;20031;-68
2020/12/14 01:15:44;;;;;;;11.77;3.63;;;10.90;99.90;;;;;;5119277;28;20135;-68
2020/12/14 01:18:10;;;;;;;7.80;2.80;;;10.90;99.90;;;;;;5100334;28;20437;-69
2020/12/14 01:20:39;;;;;;;10.43;3.33;;;10.80;99.90;;;;;;5118674;28;20080;-68
2020/12/14 01:23:05;;;;;;;11.37;3.17;;;10.80;99.90;;;;;;5106955;28;20224;-68
2020/12/14 01:25:31;;;;;;;12.97;2.23;;;10.80;99.90;;;;;;5098647;28;20077;-68
2020/12/14 01:27:57;;;;;;;13.43;3.23;;;10.70;99.90;;;;;;5080134;28;20426;-68
2020/12/14 01:30:24;;;;;;;11.43;3.37;;;10.70;99.90;;;;;;5098282;28;20036;-68
2020/12/14 01:32:53;;;;;;;10.83;3.40;;;10.70;99.90;;;;;;5098061;28;20040;-67
2020/12/14 01:35:18;;;;;;;15.47;3.27;;;10.70;99.90;;;;;;5098274;28;20403;-68
2020/12/14 01:37:44;;;;;;;11.30;3.30;;;10.80;99.90;;;;;;5098245;28;20051;-67
2020/12/14 01:40:10;;;;;;;15.33;3.23;;;10.80;99.90;;;;;;5097786;28;20028;-67
2020/12/14 01:42:40;;;;;;;13.57;4.20;;;10.80;99.90;;;;;;5097665;28;20046;-67
2020/12/14 01:45:06;;;;;;;8.53;2.57;;;10.80;99.90;;;;;;5098382;28;20035;-67
2020/12/14 01:47:37;;;;;;;15.43;4.17;;;10.70;99.90;;;;;;5104124;28;20027;-68
2020/12/14 01:50:05;;;;;;;10.27;3.23;;;10.60;99.90;;;;;;5118789;28;20432;-67
2020/12/14 01:52:31;;;;;;;11.77;3.63;;;10.60;99.90;;;;;;5117949;28;20156;-67
2020/12/14 01:55:00;;;;;;;14.13;3.23;;;10.60;99.90;;;;;;5118602;28;20118;-67
2020/12/14 01:57:25;;;;;;;6.40;2.13;;;10.60;99.90;;;;;;5117506;28;20024;-67
2020/12/14 01:59:51;;;;;;;6.87;1.53;;;10.60;99.90;;;;;;5118410;28;20031;-67
2020/12/14 02:02:17;;;;;;;9.60;2.43;;;10.50;99.90;;;;;;5099613;28;20020;-67
2020/12/14 02:04:43;;;;;;;6.87;2.13;;;10.50;99.90;;;;;;5099910;28;20118;-67
2020/12/14 02:07:08;;;;;;;7.43;2.17;;;10.50;99.90;;;;;;5117963;28;20349;-67
2020/12/14 02:09:34;;;;;;;7.20;1.27;;;10.50;99.90;;;;;;5099739;28;20023;-67
2020/12/14 02:12:00;;;;;;;5.53;1.87;;;10.50;99.90;;;;;;5118160;28;20027;-68
2020/12/14 02:14:25;;;;;;;4.27;0.60;;;10.50;99.90;;;;;;5117246;28;20646;-67
2020/12/14 02:16:51;;;;;;;6.27;1.40;;;10.40;99.90;;;;;;5099694;28;20034;-67
2020/12/14 02:19:17;;;;;;;8.27;1.20;;;10.40;99.90;;;;;;5117554;28;20338;-67
2020/12/14 02:21:42;;;;;;;10.23;1.47;;;10.40;99.90;;;;;;5117768;28;20338;-67
2020/12/14 02:24:15;;;;;;;7.63;1.50;;;10.30;99.90;;;;;;5097280;28;20051;-67
2020/12/14 02:26:41;;;;;;;6.55;0.90;;;10.30;99.90;;;;;;5097180;28;20471;-68
2020/12/14 02:29:07;;;;;;;4.80;1.60;;;10.30;99.90;;;;;;5079013;28;20035;-68
2020/12/14 02:31:32;;;;;;;6.53;0.83;;;10.20;99.90;;;;;;5096626;28;20092;-68
2020/12/14 02:33:58;;;;;;;7.37;1.53;;;10.20;99.90;;;;;;5078805;28;20151;-68
2020/12/14 02:36:24;;;;;;;5.93;1.30;;;10.10;99.90;;;;;;5096810;28;20043;-68
2020/12/14 02:38:50;;;;;;;6.73;1.63;;;10.10;99.90;;;;;;5097515;28;20059;-66
2020/12/14 02:41:16;;;;;;;7.43;1.37;;;10.10;99.90;;;;;;5078714;28;20028;-68
2020/12/14 02:43:42;;;;;;;9.27;1.97;;;10.10;99.90;;;;;;5097251;28;20418;-67
2020/12/14 02:46:08;;;;;;;11.90;2.47;;;10.10;99.90;;;;;;5096740;28;20035;-68
2020/12/14 02:48:34;;;;;;;13.03;1.90;;;10.00;99.90;;;;;;5096481;28;20081;-67
2020/12/14 02:50:59;;;;;;;7.37;2.37;;;10.10;99.90;;;;;;5078861;28;20360;-67
2020/12/14 02:53:25;;;;;;;9.00;2.47;;;10.10;99.90;;;;;;5077377;28;20032;-67
2020/12/14 02:55:51;;;;;;;8.03;2.23;;;10.10;99.90;;;;;;5096686;28;20038;-67
2020/12/14 02:58:16;;;;;;;6.87;1.83;;;10.10;99.90;;;;;;5078355;28;20028;-67
2020/12/14 03:00:42;;;;;;;8.00;2.20;;;10.10;99.90;;;;;;5096434;28;20031;-67
2020/12/14 03:03:08;;;;;;;8.07;1.93;;;10.20;99.90;;;;;;5096621;28;20028;-67
2020/12/14 03:05:33;;;;;;;8.83;2.30;;;10.20;99.90;;;;;;5096523;28;20036;-66
2020/12/14 03:07:59;;;;;;;9.13;2.43;;;10.20;99.90;;;;;;5096672;28;20396;-68
2020/12/14 03:10:24;;;;;;;13.03;3.17;;;10.20;99.90;;;;;;5096298;28;20082;-66
2020/12/14 03:12:50;;;;;;;10.70;2.57;;;10.20;99.90;;;;;;5078511;28;20121;-67
2020/12/14 03:15:16;;;;;;;13.63;4.20;;;10.20;99.90;;;;;;5094919;28;20028;-66
2020/12/14 03:17:41;;;;;;;18.17;3.83;;;10.20;99.90;;;;;;5078222;28;20085;-66
2020/12/14 03:20:07;;;;;;;10.13;3.23;;;10.20;99.90;;;;;;5095843;28;20396;-68
2020/12/14 03:22:33;;;;;;;14.93;2.93;;;10.20;99.90;;;;;;5100168;28;20430;-68
2020/12/14 03:24:58;;;;;;;11.87;2.43;;;10.20;99.90;;;;;;5096170;28;20441;-68
2020/12/14 03:27:24;;;;;;;14.80;3.13;;;10.20;99.90;;;;;;5096130;28;20032;-66
2020/12/14 03:29:50;;;;;;;16.83;3.80;;;10.20;99.90;;;;;;5077686;28;20036;-68
2020/12/14 03:32:15;;;;;;;16.40;3.83;;;10.20;99.90;;;;;;5095675;28;20354;-69
2020/12/14 03:34:41;;;;;;;15.47;4.27;;;10.30;99.90;;;;;;5095918;28;20151;-69
2020/12/14 03:37:06;;;;;;;11.37;3.77;;;10.30;99.90;;;;;;5096403;28;20024;-68
2020/12/14 03:39:32;;;;;;;15.20;3.90;;;10.20;99.90;;;;;;5095666;28;20488;-68
2020/12/14 03:41:58;;;;;;;17.43;4.17;;;10.20;99.90;;;;;;5077881;28;20055;-69
2020/12/14 03:44:23;;;;;;;16.60;3.80;;;10.20;99.90;;;;;;5096359;28;20115;-66
2020/12/14 03:46:50;;;;;;;22.03;5.50;;;10.30;99.90;;;;;;5116308;28;20121;-69
2020/12/14 03:49:16;;;;;;;16.90;3.60;;;10.30;99.90;;;;;;5116750;28;20051;-67
2020/12/14 03:51:42;;;;;;;16.47;4.50;;;10.30;99.90;;;;;;5115819;28;20063;-67
2020/12/14 03:54:07;;;;;;;10.47;2.67;;;10.30;99.90;;;;;;5116556;28;20072;-67
2020/12/14 03:56:33;;;;;;;15.10;6.13;;;10.40;99.90;;;;;;5115914;28;20028;-67
2020/12/14 03:59:00;;;;;;;14.67;3.60;;;10.40;99.90;;;;;;5116450;28;20028;-67
2020/12/14 04:01:26;;;;;;;14.70;3.27;;;10.30;99.90;;;;;;5116030;28;20036;-67
2020/12/14 04:03:53;;;;;;;13.70;4.87;;;10.20;99.90;;;;;;5116253;28;20072;-67
2020/12/14 04:06:26;;;;;;;19.67;5.67;;;10.30;99.90;;;;;;5120459;28;20076;-67
2020/12/14 04:08:53;;;;;;;16.83;3.27;;;10.20;99.90;;;;;;5120566;28;20107;-67
2020/12/14 04:11:19;;;;;;;22.77;4.53;;;10.30;99.90;;;;;;5120788;28;20028;-67
2020/12/14 04:13:47;;;;;;;16.10;5.07;;;10.40;99.90;;;;;;5120373;28;20058;-67
2020/12/14 04:16:12;;;;;;;16.80;4.13;;;10.30;99.90;;;;;;5102000;28;20023;-67
2020/12/14 04:18:39;;;;;;;19.63;4.10;;;10.30;99.90;;;;;;5119400;28;20098;-67
2020/12/14 04:21:05;;;;;;;15.93;4.67;;;10.20;99.90;;;;;;5105105;28;20462;-67
2020/12/14 04:23:31;;;;;;;18.60;2.93;;;10.30;99.90;;;;;;5100680;28;20035;-67
2020/12/14 04:25:57;;;;;;;10.97;3.40;;;10.30;99.90;;;;;;5099608;28;20299;-67
2020/12/14 04:28:22;;;;;;;14.10;3.67;;;10.30;99.90;;;;;;5099162;28;20386;-67
2020/12/14 04:30:48;;;;;;;12.63;4.67;;;10.30;99.90;;;;;;5099232;28;20166;-66
2020/12/14 04:33:14;;;;;;;13.00;3.10;;;10.20;99.90;;;;;;5099388;28;20044;-67
2020/12/14 04:35:39;;;;;;;9.13;3.27;;;10.20;99.90;;;;;;5064359;28;20043;-67
2020/12/14 04:38:05;;;;;;;11.27;3.17;;;10.10;99.90;;;;;;5099229;28;20384;-67
2020/12/14 04:40:31;;;;;;;11.37;4.03;;;10.10;99.90;;;;;;5099273;28;20395;-67
2020/12/14 04:42:58;;;;;;;18.73;2.90;;;10.20;99.90;;;;;;5099452;28;20038;-67
2020/12/14 04:45:27;;;;;;;9.67;2.83;;;10.10;99.90;;;;;;5099271;28;20338;-67
2020/12/14 04:47:57;;;;;;;14.87;4.00;;;10.00;99.90;;;;;;5099200;28;20036;-67
2020/12/14 04:50:24;;;;;;;10.67;2.80;;;9.90;99.90;;;;;;5081162;28;20028;-67
2020/12/14 04:52:51;;;;;;;12.33;2.77;;;9.90;99.90;;;;;;5080727;28;20036;-67
2020/12/14 04:55:22;;;;;;;8.33;2.93;;;10.00;99.90;;;;;;5098825;28;20085;-66
2020/12/14 04:57:48;;;;;;;11.03;1.90;;;10.00;99.90;;;;;;5080498;28;20436;-67
2020/12/14 05:00:15;;;;;;;12.47;3.60;;;9.90;99.90;;;;;;5098867;28;20275;-67
2020/12/14 05:02:41;;;;;;;13.00;2.43;;;9.90;99.90;;;;;;5099107;28;20032;-67
2020/12/14 05:05:11;;;;;;;7.63;1.97;;;9.90;99.90;;;;;;5098566;28;20388;-67
2020/12/14 05:07:42;;;;;;;7.27;1.87;;;9.90;99.90;;;;;;5099072;28;20035;-67
2020/12/14 05:10:08;;;;;;;5.70;2.07;;;9.80;99.90;;;;;;5098283;28;20027;-67
2020/12/14 05:12:44;;;;;;;7.93;2.30;;;9.80;99.90;;;;;;5098657;28;20036;-67
2020/12/14 05:15:20;;;;;;;6.07;1.30;;;9.70;99.90;;;;;;5098567;28;20023;-67
2020/12/14 05:17:46;;;;;;;5.20;1.40;;;9.70;99.90;;;;;;5097947;28;20069;-67
2020/12/14 05:20:13;;;;;;;7.97;2.07;;;9.60;99.90;;;;;;5097955;28;20034;-67
2020/12/14 05:22:53;;;;;;;15.97;2.40;;;9.60;99.90;;;;;;5106690;28;20050;-67
2020/12/14 05:25:19;;;;;;;5.53;1.27;;;9.60;99.90;;;;;;5101233;28;20127;-67
2020/12/14 05:27:44;;;;;;;4.30;1.20;;;9.60;99.90;;;;;;5098750;28;20087;-67
2020/12/14 05:30:14;;;;;;;6.17;2.33;;;9.60;99.90;;;;;;5097913;28;20092;-67
2020/12/14 05:32:40;;;;;;;4.43;1.80;;;9.50;99.90;;;;;;5080465;28;20032;-67
2020/12/14 05:35:11;;;;;;;7.93;2.87;;;9.50;99.90;;;;;;5098139;28;20031;-68
2020/12/14 05:37:38;;;;;;;5.30;1.23;;;9.50;99.90;;;;;;5104847;28;20032;-67
2020/12/14 05:40:13;;;;;;;2.93;1.10;;;9.50;99.90;;;;;;5118499;28;20039;-67
2020/12/14 05:42:42;;;;;;;13.20;3.13;;;9.40;99.90;;;;;;5100301;28;20452;-67
2020/12/14 05:45:12;;;;;;;6.43;1.93;;;9.40;99.90;;;;;;5119157;28;20023;-67
2020/12/14 05:47:42;;;;;;;4.33;1.27;;;9.50;99.90;;;;;;5126283;28;20016;-67
2020/12/14 05:50:09;;;;;;;5.90;1.63;;;9.40;99.90;;;;;;5128058;28;20119;-67
2020/12/14 05:52:40;;;;;;;7.77;1.73;;;9.40;99.90;;;;;;5106663;28;20032;-67
2020/12/14 05:55:09;;;;;;;5.63;1.90;;;9.40;99.90;;;;;;5118296;28;20023;-67
2020/12/14 05:57:36;;;;;;;4.47;1.90;;;9.30;99.90;;;;;;5099555;28;20020;-67
2020/12/14 06:00:10;;;;;;;5.17;1.07;;;9.30;99.90;;;;;;5118187;28;20049;-67
2020/12/14 06:02:37;;;;;;;4.70;1.50;;;9.30;99.90;;;;;;5118133;28;20023;-67
2020/12/14 06:05:04;;;;;;;3.97;2.13;;;9.20;99.90;;;;;;5100050;28;20338;-67
2020/12/14 06:07:32;;;;;;;8.47;1.57;;;9.30;99.90;;;;;;5118340;28;20023;-67
2020/12/14 06:10:12;;;;;;;7.03;1.20;;;9.30;99.90;;;;;;5118436;28;20031;-67
2020/12/14 06:12:44;;;;;;;5.37;2.20;;;9.30;99.90;;;;;;5118033;28;20019;-67
2020/12/14 06:15:14;;;;;;;7.23;1.57;;;9.20;99.90;;;;;;5117917;28;20016;-67
2020/12/14 06:17:41;;;;;;;8.70;2.63;;;9.30;99.90;;;;;;5118090;28;20054;-67
2020/12/14 06:20:20;;;;;;;7.30;1.70;;;9.30;99.90;;;;;;5098955;28;20066;-67
2020/12/14 06:22:51;;;;;;;12.47;1.80;;;9.30;99.90;;;;;;5109098;28;20429;-67
2020/12/14 06:25:18;;;;;;;4.77;1.47;;;9.20;99.90;;;;;;5096889;28;20157;-67
2020/12/14 06:27:43;;;;;;;7.80;2.33;;;9.20;99.90;;;;;;5097326;28;20020;-67
2020/12/14 06:30:27;;;;;;;8.03;2.50;;;9.10;99.90;;;;;;5097354;28;20031;-67
2020/12/14 06:33:13;;;;;;;6.83;2.10;;;9.10;99.90;;;;;;5097083;28;20028;-67
2020/12/14 06:35:50;;;;;;;10.17;2.67;;;9.20;99.90;;;;;;5104574;28;20028;-67
2020/12/14 06:38:38;;;;;;;9.07;2.57;;;9.10;99.90;;;;;;5098452;28;20379;-67
2020/12/14 06:41:26;;;;;;;12.73;2.70;;;9.10;99.90;;;;;;5117363;28;20020;-67
2020/12/14 06:44:05;;;;;;;9.53;3.37;;;9.30;99.90;;;;;;5117448;28;20063;-66
2020/12/14 06:46:32;;;;;;;8.67;2.17;;;9.20;99.90;;;;;;5116885;28;20023;-67
2020/12/14 06:49:00;;;;;;;9.87;2.27;;;9.20;99.90;;;;;;5099000;28;20487;-67
2020/12/14 06:51:46;;;;;;;8.60;3.30;;;9.30;99.90;;;;;;5116930;28;20209;-67
2020/12/14 06:54:11;;;;;;;16.67;3.07;;;9.30;99.90;;;;;;5117031;28;20076;-67
2020/12/14 06:56:40;;;;;;;15.10;3.43;;;9.30;99.90;;;;;;5117570;28;20036;-67
2020/12/14 06:59:30;;;;;;;11.60;3.47;;;9.20;99.90;;;;;;5117031;28;20024;-67
2020/12/14 07:01:57;;;;;;;8.67;2.83;;;9.20;99.90;;;;;;5116960;28;20026;-67
2020/12/14 07:04:29;;;;;;;10.90;3.53;;;9.10;99.90;;;;;;5098449;28;20024;-67
2020/12/14 07:07:04;;;;;;;12.00;2.73;;;9.10;99.90;;;;;;5098266;28;20023;-66
2020/12/14 07:09:33;;;;;;;10.60;2.80;;;9.10;99.90;;;;;;5115878;28;20023;-67
2020/12/14 07:12:10;;;;;;;16.63;2.63;;;9.10;99.90;;;;;;5116781;28;20028;-67
2020/12/14 07:14:45;;;;;;;13.70;3.27;;;9.10;99.90;;;;;;5116222;28;20058;-67
2020/12/14 07:17:19;;;;;;;12.00;3.03;;;9.20;99.90;;;;;;5116877;28;20028;-67
2020/12/14 07:19:46;;;;;;;16.00;3.07;;;9.10;99.90;;;;;;5116478;28;20441;-67
2020/12/14 07:22:20;;;;;;;12.47;2.60;;;9.10;99.90;;;;;;5112124;28;20361;-67
2020/12/14 07:24:58;;;;;;;14.88;3.03;;;9.10;99.90;;;;;;5096237;28;20035;-66
2020/12/14 07:27:24;;;;;;;13.70;3.67;;;9.20;99.90;;;;;;5096056;28;20297;-67
2020/12/14 07:29:50;;;;;;;16.70;4.80;;;9.20;99.90;;;;;;5095645;28;20069;-67
2020/12/14 07:32:16;;;;;;;20.03;5.57;;;9.20;99.90;;;;;;5096044;28;20020;-67
2020/12/14 07:34:54;;;;;;;19.03;4.83;;;9.20;99.90;;;;;;5095379;28;20077;-66
2020/12/14 07:37:23;;;;;;;16.30;3.10;;;9.20;99.90;;;;;;5078302;28;20032;-67
2020/12/14 07:39:50;;;;;;;8.23;3.40;;;9.20;99.90;;;;;;5077165;28;20052;-67
2020/12/14 07:42:30;;;;;;;18.20;4.80;;;9.20;99.90;;;;;;5096330;28;20490;-66
2020/12/14 07:45:17;;;;;;;19.50;4.30;;;9.20;99.90;;;;;;5095530;28;20032;-66
2020/12/14 07:47:44;;;;;;;10.90;3.30;;;9.20;99.90;;;;;;5096139;28;20035;-66
2020/12/14 07:50:17;;;;;;;15.00;4.17;;;9.20;99.90;;;;;;5096080;28;20501;-66
2020/12/14 07:52:46;;;;;;;15.23;4.68;;;9.20;99.90;;;;;;5077937;28;20356;-67
2020/12/14 07:55:13;;;;;;;10.70;3.47;;;9.20;99.90;;;;;;5077308;28;20081;-67
2020/12/14 07:57:41;;;;;;;17.93;4.77;;;9.20;99.90;;;;;;5096110;28;20020;-67
2020/12/14 08:00:09;;;;;;;17.17;4.03;;;9.30;99.90;;;;;;5095739;28;20031;-66
2020/12/14 08:02:35;;;;;;;20.57;4.20;;;9.40;99.90;;;;;;5078073;28;20311;-66
2020/12/14 08:05:09;;;;;;;23.30;3.93;;;9.40;99.90;;;;;;5095539;28;20024;-66
2020/12/14 08:07:41;;;;;;;33.43;4.60;;;9.40;99.90;;;;;;5101974;28;20315;-66
2020/12/14 08:10:08;;;;;;;14.13;3.80;;;9.40;99.90;;;;;;5115935;28;20185;-66
2020/12/14 08:12:37;;;;;;;13.47;4.17;;;9.40;99.90;;;;;;5097054;28;20030;-66
2020/12/14 08:15:08;;;;;;;16.13;5.27;;;9.30;99.90;;;;;;5116178;28;20016;-66
2020/12/14 08:17:36;;;;;;;18.43;4.90;;;9.30;99.90;;;;;;5115700;28;20031;-67
2020/12/14 08:20:04;;;;;;;16.53;4.70;;;9.30;99.90;;;;;;5115513;28;20433;-66
2020/12/14 08:22:33;;;;;;;15.77;4.90;;;9.30;99.90;;;;;;5109198;28;20032;-67
2020/12/14 08:25:00;;;;;;;16.87;3.70;;;9.40;99.90;;;;;;5095703;28;20158;-66
2020/12/14 08:27:48;;;;;;;19.23;4.23;;;9.50;99.90;;;;;;5094897;28;20032;-66
2020/12/14 08:30:16;;;;;;;31.37;6.20;;;9.40;99.90;;;;;;5095611;28;20436;-66
2020/12/14 08:32:42;;;;;;;17.50;4.93;;;9.40;99.90;;;;;;5094855;28;20028;-67
2020/12/14 08:35:24;;;;;;;17.13;4.07;;;9.50;99.90;;;;;;5095146;28;20071;-67
2020/12/14 08:37:51;;;;;;;23.93;4.33;;;9.60;99.90;;;;;;5095232;28;20035;-67
2020/12/14 08:40:18;;;;;;;19.27;4.40;;;9.50;99.90;;;;;;5095361;28;20024;-67
2020/12/14 08:42:44;;;;;;;16.07;3.63;;;9.50;99.90;;;;;;5095198;28;20029;-67
2020/12/14 08:45:12;;;;;;;28.03;4.87;;;9.50;99.90;;;;;;5095189;28;20315;-67
2020/12/14 08:47:40;;;;;;;14.47;4.00;;;9.60;99.90;;;;;;5094942;28;20055;-68
2020/12/14 08:50:08;;;;;;;18.40;4.30;;;9.60;99.90;;;;;;5094991;28;20028;-67
2020/12/14 08:52:33;;;;;;;17.63;4.23;;;9.70;99.90;;;;;;5097459;28;20369;-66
2020/12/14 08:54:59;;;;;;;20.07;4.93;;;9.80;99.90;;;;;;5098797;28;20034;-67
2020/12/14 08:57:29;;;;;;;19.43;4.20;;;9.90;99.90;;;;;;5099135;28;20024;-66
2020/12/14 09:00:15;;;;;;;16.57;4.30;;;10.00;99.90;;;;;;5081172;28;20438;-66
2020/12/14 09:02:40;;;;;;;16.83;4.90;;;10.10;99.90;;;;;;5080954;28;20028;-66
2020/12/14 09:05:14;;;;;;;19.50;5.57;;;10.20;99.90;;;;;;5099051;28;20510;-67
2020/12/14 09:07:39;;;;;;;29.00;4.93;;;10.20;99.90;;;;;;5104581;28;20106;-66
2020/12/14 09:10:28;;;;;;;16.27;5.27;;;10.20;99.90;;;;;;5116528;28;20114;-67
2020/12/14 09:13:03;;;;;;;12.07;3.67;;;10.20;99.90;;;;;;5113832;28;20532;-67
2020/12/14 09:15:30;;;;;;;15.57;3.70;;;10.30;99.90;;;;;;5118299;28;20019;-66
2020/12/14 09:18:06;;;;;;;21.57;6.53;;;10.40;99.90;;;;;;5102947;28;20083;-66
2020/12/14 09:20:33;;;;;;;12.27;3.80;;;10.50;99.90;;;;;;5098591;28;20422;-65
2020/12/14 09:22:59;;;;;;;15.07;4.13;;;10.50;99.90;;;;;;5110021;28;20084;-66
2020/12/14 09:25:24;;;;;;;17.30;3.83;;;10.60;99.90;;;;;;5118421;28;20106;-65
2020/12/14 09:27:50;;;;;;;16.33;4.77;;;10.60;99.90;;;;;;5094791;28;20111;-66
2020/12/14 09:30:16;;;;;;;15.30;3.87;;;10.70;99.90;;;;;;5095731;28;20096;-67
2020/12/14 09:32:42;;;;;;;17.97;5.33;;;10.70;99.90;;;;;;5105701;28;20180;-66
2020/12/14 09:35:08;;;;;;;14.93;3.70;;;10.70;99.90;;;;;;5098660;28;20055;-65
2020/12/14 09:37:33;;;;;;;10.87;3.13;;;10.70;99.90;;;;;;5115727;28;20334;-65
2020/12/14 09:40:01;;;;;;;11.73;3.50;;;10.60;99.90;;;;;;5113121;28;20026;-65
2020/12/14 09:42:28;;;;;;;21.37;4.07;;;10.60;99.90;;;;;;5104652;28;20040;-65
2020/12/14 09:44:54;;;;;;;18.10;4.50;;;10.50;99.90;;;;;;5108285;28;20023;-65
2020/12/14 09:47:20;;;;;;;10.07;3.03;;;10.50;99.90;;;;;;5108989;28;20034;-66
2020/12/14 09:49:45;;;;;;;10.07;2.60;;;10.40;99.90;;;;;;5114227;28;20039;-65
2020/12/14 09:52:11;;;;;;;8.63;3.23;;;10.40;99.90;;;;;;5113513;28;20490;-65
2020/12/14 09:54:37;;;;;;;11.80;2.90;;;10.40;99.90;;;;;;5116852;28;20080;-65
2020/12/14 09:57:02;;;;;;;12.13;2.60;;;10.40;99.90;;;;;;5098776;28;20083;-65
2020/12/14 09:59:28;;;;;;;12.10;3.90;;;10.40;99.90;;;;;;5112439;28;20035;-66
2020/12/14 10:01:54;;;;;;;13.17;2.30;;;10.40;99.90;;;;;;5097830;28;20114;-66
2020/12/14 10:04:19;;;;;;;16.93;3.70;;;10.60;99.90;;;;;;5117005;28;20030;-66
2020/12/14 10:06:46;;;;;;;11.40;2.63;;;10.60;99.90;;;;;;5101448;28;20028;-66
2020/12/14 10:09:12;;;;;;;10.20;2.50;;;10.60;99.90;;;;;;5106263;28;20020;-66
2020/12/14 10:11:39;;;;;;;8.53;2.13;;;10.70;99.90;;;;;;5116578;28;20076;-66
2020/12/14 10:14:05;;;;;;;12.73;4.00;;;10.60;99.90;;;;;;5099189;28;20035;-66
2020/12/14 10:16:31;;;;;;;16.63;3.80;;;10.80;99.90;;;;;;5117500;28;20378;-65
2020/12/14 10:18:56;;;;;;;10.13;2.63;;;10.80;99.90;;;;;;5117430;28;20357;-65
2020/12/14 10:21:22;;;;;;;10.37;3.60;;;10.70;99.90;;;;;;5117914;28;20031;-65
2020/12/14 10:23:48;;;;;;;14.80;3.00;;;10.80;99.90;;;;;;5099920;28;20105;-66
2020/12/14 10:26:15;;;;;;;12.03;2.87;;;10.90;99.90;;;;;;5097260;28;20039;-66
2020/12/14 10:28:41;;;;;;;11.53;3.07;;;10.90;99.90;;;;;;5097068;28;20024;-66
2020/12/14 10:31:08;;;;;;;8.67;2.40;;;11.00;99.90;;;;;;5079061;28;20035;-67
2020/12/14 10:33:34;;;;;;;10.97;3.20;;;11.10;99.90;;;;;;5097126;28;20146;-66
2020/12/14 10:36:15;;;;;;;11.40;2.70;;;11.40;99.90;;;;;;5097490;28;20027;-67
2020/12/14 10:38:41;;;;;;;10.03;2.37;;;11.40;99.90;;;;;;5087614;28;20479;-66
2020/12/14 10:41:06;;;;;;;8.37;2.67;;;11.70;99.90;;;;;;5117253;28;20027;-65
2020/12/14 10:43:32;;;;;;;10.77;2.90;;;12.00;99.90;;;;;;5099286;28;20076;-65
2020/12/14 10:45:58;;;;;;;13.67;3.03;;;12.40;99.90;;;;;;5116998;28;20027;-66
2020/12/14 10:48:24;;;;;;;11.37;3.50;;;12.10;99.90;;;;;;5117543;28;20024;-65
2020/12/14 10:50:50;;;;;;;11.33;3.17;;;11.90;99.90;;;;;;5117391;28;20363;-65
2020/12/14 10:53:16;;;;;;;10.77;2.93;;;12.10;99.90;;;;;;5116979;28;20034;-66
2020/12/14 10:55:41;;;;;;;11.00;2.30;;;12.40;99.90;;;;;;5117003;28;20303;-65
2020/12/14 10:58:07;;;;;;;11.43;2.90;;;12.50;99.90;;;;;;5117470;28;20092;-65
2020/12/14 11:00:33;;;;;;;11.93;2.27;;;12.70;99.90;;;;;;5117065;28;20114;-64
2020/12/14 11:02:59;;;;;;;9.30;2.70;;;12.30;99.90;;;;;;5116654;28;20045;-64
2020/12/14 11:05:25;;;;;;;9.03;2.37;;;11.90;99.90;;;;;;5116944;28;20023;-64
2020/12/14 11:07:53;;;;;;;14.20;3.10;;;11.60;99.90;;;;;;5116560;28;20048;-65
2020/12/14 11:10:19;;;;;;;16.43;2.90;;;11.50;99.90;;;;;;5117051;28;20024;-65
2020/12/14 11:12:44;;;;;;;8.53;2.57;;;11.30;99.90;;;;;;5116681;28;20330;-65
2020/12/14 11:15:10;;;;;;;8.80;2.40;;;11.20;99.90;;;;;;5115976;28;20319;-65
2020/12/14 11:17:37;;;;;;;13.03;3.13;;;11.10;99.90;;;;;;5116811;28;20051;-65
2020/12/14 11:20:08;;;;;;;11.40;2.40;;;11.10;99.90;;;;;;5116038;28;20030;-65
2020/12/14 11:22:36;;;;;;;9.50;2.17;;;11.10;99.90;;;;;;5093343;28;20035;-64
2020/12/14 11:25:06;;;;;;;17.33;3.37;;;11.10;99.90;;;;;;5079726;28;20024;-64
2020/12/14 11:27:35;;;;;;;11.90;3.73;;;11.30;99.90;;;;;;5082480;28;20036;-65
2020/12/14 11:30:01;;;;;;;14.20;3.23;;;11.40;99.90;;;;;;5083045;28;20081;-64
2020/12/14 11:32:27;;;;;;;12.97;2.83;;;11.40;99.90;;;;;;5112858;28;20035;-65
2020/12/14 11:34:53;;;;;;;9.20;2.47;;;11.50;99.90;;;;;;5100280;28;20064;-64
2020/12/14 11:37:19;;;;;;;11.20;4.00;;;11.60;99.90;;;;;;5096074;28;20032;-64
2020/12/14 11:39:45;;;;;;;17.87;3.37;;;11.60;99.90;;;;;;5096056;28;20035;-65
2020/12/14 11:42:11;;;;;;;12.47;3.63;;;11.60;99.90;;;;;;5096242;28;20107;-65
2020/12/14 11:44:37;;;;;;;7.83;2.93;;;11.70;99.90;;;;;;5096076;28;20059;-64
2020/12/14 11:47:03;;;;;;;10.07;2.70;;;11.70;99.90;;;;;;5095544;28;20028;-64
2020/12/14 11:49:28;;;;;;;10.30;2.37;;;11.80;99.90;;;;;;5095798;28;20031;-65
2020/12/14 11:51:54;;;;;;;12.93;2.87;;;11.80;99.90;;;;;;5096105;28;20067;-64
2020/12/14 11:54:20;;;;;;;9.50;2.03;;;11.90;99.90;;;;;;5077655;28;20040;-64
2020/12/14 11:56:46;;;;;;;9.00;1.83;;;11.80;99.90;;;;;;5095865;28;20032;-65
2020/12/14 11:59:13;;;;;;;7.33;2.30;;;11.80;99.90;;;;;;5095640;28;20115;-64
2020/12/14 12:01:38;;;;;;;9.23;2.33;;;11.90;99.90;;;;;;5095852;28;20024;-64
2020/12/14 12:04:04;;;;;;;9.70;2.47;;;11.80;99.90;;;;;;5095078;28;20035;-64
2020/12/14 12:06:30;;;;;;;10.20;3.20;;;11.80;99.90;;;;;;5096148;28;20036;-65
2020/12/14 12:08:57;;;;;;;8.80;2.33;;;11.80;99.90;;;;;;5096087;28;20051;-65
2020/12/14 12:11:23;;;;;;;8.70;2.30;;;11.80;99.90;;;;;;5096136;28;20036;-64
2020/12/14 12:13:50;;;;;;;9.17;3.33;;;11.80;99.90;;;;;;5095814;28;20091;-65
2020/12/14 12:16:16;;;;;;;10.77;2.93;;;11.80;99.90;;;;;;5095641;28;20350;-65
2020/12/14 12:18:43;;;;;;;10.80;3.10;;;11.80;99.90;;;;;;5095260;28;20028;-64
2020/12/14 12:21:09;;;;;;;12.87;4.27;;;11.80;99.90;;;;;;5077912;28;20024;-64
2020/12/14 12:23:35;;;;;;;10.17;2.30;;;11.80;99.90;;;;;;5083145;28;20036;-64
2020/12/14 12:26:01;;;;;;;10.27;4.00;;;11.90;99.90;;;;;;5096920;28;20046;-64
2020/12/14 12:28:27;;;;;;;11.87;2.07;;;11.90;99.90;;;;;;5081071;28;20441;-64
2020/12/14 12:30:52;;;;;;;8.37;2.30;;;11.90;99.90;;;;;;5099580;28;20067;-64
2020/12/14 12:33:18;;;;;;;14.83;4.27;;;11.90;99.90;;;;;;5098782;28;20043;-64
2020/12/14 12:35:44;;;;;;;12.37;3.00;;;11.90;99.90;;;;;;5099578;28;20063;-64
2020/12/14 12:38:09;;;;;;;10.63;3.77;;;11.90;99.90;;;;;;5098998;28;20024;-64
2020/12/14 12:40:35;;;;;;;11.23;2.73;;;12.00;99.90;;;;;;5099559;28;20088;-64
2020/12/14 12:43:02;;;;;;;7.83;2.40;;;12.00;99.90;;;;;;5099141;28;20122;-67
2020/12/14 12:45:27;;;;;;;8.33;2.73;;;12.00;99.90;;;;;;5099463;28;20135;-64